sensor_id;sensor_type;location;lat;lon;timestamp;P1;durP1;ratioP1;P2;durP2;ratioP2
53036;SDS011;38924;52.134;4.666;2022-07-10T00:01:36;864.83;;;790.15;;
53036;SDS011;38924;52.134;4.666;2022-07-10T00:04:01;863.83;;;788.58;;
53036;SDS011;38924;52.134;4.666;2022-07-10T00:06:27;854.92;;;782.33;;
53036;SDS011;38924;52.134;4.666;2022-07-10T00:08:53;857.97;;;785.90;;
53036;SDS011;38924;52.134;4.666;2022-07-10T00:11:20;847.25;;;775.40;;
53036;SDS011;38924;52.134;4.666;2022-07-10T00:13:46;867.25;;;793.33;;
53036;SDS011;38924;52.134;4.666;2022-07-10T00:16:12;831.85;;;758.53;;
53036;SDS011;38924;52.134;4.666;2022-07-10T00:18:37;810.20;;;741.45;;
53036;SDS011;38924;52.134;4.666;2022-07-10T00:21:05;839.72;;;767.78;;
53036;SDS011;38924;52.134;4.666;2022-07-10T00:23:31;840.80;;;767.92;;
53036;SDS011;38924;52.134;4.666;2022-07-10T00:25:57;835.00;;;763.00;;
53036;SDS011;38924;52.134;4.666;2022-07-10T00:28:23;841.90;;;770.17;;
53036;SDS011;38924;52.134;4.666;2022-07-10T00:30:51;829.53;;;759.03;;
53036;SDS011;38924;52.134;4.666;2022-07-10T00:33:17;837.40;;;765.17;;
53036;SDS011;38924;52.134;4.666;2022-07-10T00:35:42;814.83;;;743.92;;
53036;SDS011;38924;52.134;4.666;2022-07-10T00:38:08;829.88;;;760.03;;
53036;SDS011;38924;52.134;4.666;2022-07-10T00:40:34;820.15;;;751.17;;
53036;SDS011;38924;52.134;4.666;2022-07-10T00:42:59;818.83;;;749.45;;
53036;SDS011;38924;52.134;4.666;2022-07-10T00:45:25;805.90;;;738.88;;
53036;SDS011;38924;52.134;4.666;2022-07-10T00:47:51;818.30;;;748.03;;
53036;SDS011;38924;52.134;4.666;2022-07-10T00:50:16;792.65;;;725.53;;
53036;SDS011;38924;52.134;4.666;2022-07-10T00:52:42;784.17;;;717.35;;
53036;SDS011;38924;52.134;4.666;2022-07-10T00:55:08;794.88;;;727.25;;
53036;SDS011;38924;52.134;4.666;2022-07-10T00:57:35;802.50;;;733.55;;
53036;SDS011;38924;52.134;4.666;2022-07-10T01:00:01;789.88;;;723.10;;
53036;SDS011;38924;52.134;4.666;2022-07-10T01:02:27;790.95;;;724.20;;
53036;SDS011;38924;52.134;4.666;2022-07-10T01:04:53;813.67;;;745.17;;
53036;SDS011;38924;52.134;4.666;2022-07-10T01:07:21;780.55;;;715.00;;
53036;SDS011;38924;52.134;4.666;2022-07-10T01:09:47;787.88;;;719.53;;
53036;SDS011;38924;52.134;4.666;2022-07-10T01:12:13;775.65;;;709.83;;
53036;SDS011;38924;52.134;4.666;2022-07-10T01:14:38;763.00;;;698.55;;
53036;SDS011;38924;52.134;4.666;2022-07-10T01:17:06;762.30;;;699.53;;
53036;SDS011;38924;52.134;4.666;2022-07-10T01:19:32;741.80;;;681.22;;
53036;SDS011;38924;52.134;4.666;2022-07-10T01:21:57;778.03;;;714.28;;
53036;SDS011;38924;52.134;4.666;2022-07-10T01:24:23;752.50;;;688.42;;
53036;SDS011;38924;52.134;4.666;2022-07-10T01:26:49;751.92;;;688.60;;
53036;SDS011;38924;52.134;4.666;2022-07-10T01:29:15;763.55;;;699.28;;
53036;SDS011;38924;52.134;4.666;2022-07-10T01:31:41;739.90;;;676.85;;
53036;SDS011;38924;52.134;4.666;2022-07-10T01:34:07;730.85;;;669.22;;
53036;SDS011;38924;52.134;4.666;2022-07-10T01:36:34;750.70;;;687.83;;
53036;SDS011;38924;52.134;4.666;2022-07-10T01:39:00;698.35;;;640.15;;
53036;SDS011;38924;52.134;4.666;2022-07-10T01:41:26;741.55;;;678.78;;
53036;SDS011;38924;52.134;4.666;2022-07-10T01:43:52;735.38;;;673.00;;
53036;SDS011;38924;52.134;4.666;2022-07-10T01:46:18;729.20;;;667.58;;
53036;SDS011;38924;52.134;4.666;2022-07-10T01:48:43;715.95;;;654.97;;
53036;SDS011;38924;52.134;4.666;2022-07-10T01:51:09;724.90;;;663.90;;
53036;SDS011;38924;52.134;4.666;2022-07-10T01:53:36;732.35;;;671.63;;
53036;SDS011;38924;52.134;4.666;2022-07-10T01:56:03;711.58;;;653.05;;
53036;SDS011;38924;52.134;4.666;2022-07-10T01:58:29;706.75;;;647.25;;
53036;SDS011;38924;52.134;4.666;2022-07-10T02:00:55;725.35;;;665.92;;
53036;SDS011;38924;52.134;4.666;2022-07-10T02:03:21;681.88;;;623.92;;
53036;SDS011;38924;52.134;4.666;2022-07-10T02:06:05;717.63;;;657.60;;
53036;SDS011;38924;52.134;4.666;2022-07-10T02:08:30;712.88;;;654.03;;
53036;SDS011;38924;52.134;4.666;2022-07-10T02:10:56;688.50;;;631.33;;
53036;SDS011;38924;52.134;4.666;2022-07-10T02:13:22;693.25;;;636.67;;
53036;SDS011;38924;52.134;4.666;2022-07-10T02:15:50;705.90;;;648.00;;
53036;SDS011;38924;52.134;4.666;2022-07-10T02:18:16;671.90;;;616.25;;
53036;SDS011;38924;52.134;4.666;2022-07-10T02:20:41;679.03;;;622.10;;
53036;SDS011;38924;52.134;4.666;2022-07-10T02:23:07;691.33;;;633.17;;
53036;SDS011;38924;52.134;4.666;2022-07-10T02:25:33;658.67;;;603.95;;
53036;SDS011;38924;52.134;4.666;2022-07-10T02:27:59;686.25;;;629.83;;
53036;SDS011;38924;52.134;4.666;2022-07-10T02:30:25;678.53;;;622.25;;
53036;SDS011;38924;52.134;4.666;2022-07-10T02:32:50;676.97;;;621.47;;
53036;SDS011;38924;52.134;4.666;2022-07-10T02:35:16;687.05;;;629.75;;
53036;SDS011;38924;52.134;4.666;2022-07-10T02:37:42;685.90;;;629.08;;
53036;SDS011;38924;52.134;4.666;2022-07-10T02:40:08;664.38;;;608.28;;
53036;SDS011;38924;52.134;4.666;2022-07-10T02:42:33;640.65;;;588.08;;
53036;SDS011;38924;52.134;4.666;2022-07-10T02:44:59;651.55;;;598.25;;
53036;SDS011;38924;52.134;4.666;2022-07-10T02:47:25;700.85;;;642.58;;
53036;SDS011;38924;52.134;4.666;2022-07-10T02:49:50;678.08;;;620.50;;
53036;SDS011;38924;52.134;4.666;2022-07-10T02:52:16;691.90;;;633.80;;
53036;SDS011;38924;52.134;4.666;2022-07-10T02:54:41;699.13;;;640.45;;
53036;SDS011;38924;52.134;4.666;2022-07-10T02:57:07;678.88;;;622.13;;
53036;SDS011;38924;52.134;4.666;2022-07-10T02:59:33;668.92;;;611.75;;
53036;SDS011;38924;52.134;4.666;2022-07-10T03:01:59;697.53;;;637.55;;
53036;SDS011;38924;52.134;4.666;2022-07-10T03:04:25;689.70;;;631.67;;
53036;SDS011;38924;52.134;4.666;2022-07-10T03:06:53;707.83;;;648.15;;
53036;SDS011;38924;52.134;4.666;2022-07-10T03:09:20;720.53;;;661.13;;
53036;SDS011;38924;52.134;4.666;2022-07-10T03:11:46;688.95;;;631.75;;
53036;SDS011;38924;52.134;4.666;2022-07-10T03:14:11;731.72;;;670.05;;
53036;SDS011;38924;52.134;4.666;2022-07-10T03:16:38;686.28;;;628.00;;
53036;SDS011;38924;52.134;4.666;2022-07-10T03:19:06;697.85;;;638.67;;
53036;SDS011;38924;52.134;4.666;2022-07-10T03:21:31;697.70;;;639.88;;
53036;SDS011;38924;52.134;4.666;2022-07-10T03:23:57;713.05;;;653.75;;
53036;SDS011;38924;52.134;4.666;2022-07-10T03:26:23;710.63;;;650.88;;
53036;SDS011;38924;52.134;4.666;2022-07-10T03:28:48;705.05;;;645.80;;
53036;SDS011;38924;52.134;4.666;2022-07-10T03:31:14;710.92;;;649.67;;
53036;SDS011;38924;52.134;4.666;2022-07-10T03:33:40;716.97;;;656.83;;
53036;SDS011;38924;52.134;4.666;2022-07-10T03:36:05;718.33;;;657.45;;
53036;SDS011;38924;52.134;4.666;2022-07-10T03:38:31;704.25;;;645.58;;
53036;SDS011;38924;52.134;4.666;2022-07-10T03:40:57;702.63;;;642.97;;
53036;SDS011;38924;52.134;4.666;2022-07-10T03:43:23;685.15;;;627.63;;
53036;SDS011;38924;52.134;4.666;2022-07-10T03:45:50;724.55;;;662.65;;
53036;SDS011;38924;52.134;4.666;2022-07-10T03:48:17;705.10;;;645.08;;
53036;SDS011;38924;52.134;4.666;2022-07-10T03:50:42;709.60;;;649.58;;
53036;SDS011;38924;52.134;4.666;2022-07-10T03:53:08;715.60;;;656.90;;
53036;SDS011;38924;52.134;4.666;2022-07-10T03:55:34;677.05;;;618.47;;
53036;SDS011;38924;52.134;4.666;2022-07-10T03:58:00;711.65;;;649.92;;
53036;SDS011;38924;52.134;4.666;2022-07-10T04:00:29;706.40;;;647.55;;
53036;SDS011;38924;52.134;4.666;2022-07-10T04:02:58;725.25;;;665.25;;
53036;SDS011;38924;52.134;4.666;2022-07-10T04:05:24;730.22;;;670.50;;
53036;SDS011;38924;52.134;4.666;2022-07-10T04:07:50;718.15;;;655.72;;
53036;SDS011;38924;52.134;4.666;2022-07-10T04:10:16;735.17;;;672.95;;
53036;SDS011;38924;52.134;4.666;2022-07-10T04:12:41;669.47;;;613.70;;
53036;SDS011;38924;52.134;4.666;2022-07-10T04:15:07;672.60;;;616.35;;
53036;SDS011;38924;52.134;4.666;2022-07-10T04:17:33;702.03;;;642.92;;
53036;SDS011;38924;52.134;4.666;2022-07-10T04:19:59;669.80;;;611.33;;
53036;SDS011;38924;52.134;4.666;2022-07-10T04:22:26;700.60;;;641.17;;
53036;SDS011;38924;52.134;4.666;2022-07-10T04:24:54;686.55;;;627.40;;
53036;SDS011;38924;52.134;4.666;2022-07-10T04:27:20;712.42;;;651.05;;
53036;SDS011;38924;52.134;4.666;2022-07-10T04:29:46;707.70;;;649.85;;
53036;SDS011;38924;52.134;4.666;2022-07-10T04:32:12;713.08;;;653.45;;
53036;SDS011;38924;52.134;4.666;2022-07-10T04:34:39;702.78;;;642.70;;
53036;SDS011;38924;52.134;4.666;2022-07-10T04:37:05;690.33;;;633.08;;
53036;SDS011;38924;52.134;4.666;2022-07-10T04:39:33;709.25;;;650.00;;
53036;SDS011;38924;52.134;4.666;2022-07-10T04:42:01;706.05;;;647.60;;
53036;SDS011;38924;52.134;4.666;2022-07-10T04:44:28;695.42;;;636.47;;
53036;SDS011;38924;52.134;4.666;2022-07-10T04:46:54;713.92;;;654.22;;
53036;SDS011;38924;52.134;4.666;2022-07-10T04:49:20;711.47;;;652.22;;
53036;SDS011;38924;52.134;4.666;2022-07-10T04:51:46;716.10;;;655.67;;
53036;SDS011;38924;52.134;4.666;2022-07-10T04:54:11;718.35;;;658.00;;
53036;SDS011;38924;52.134;4.666;2022-07-10T04:56:37;707.50;;;647.25;;
53036;SDS011;38924;52.134;4.666;2022-07-10T04:59:03;710.67;;;651.92;;
53036;SDS011;38924;52.134;4.666;2022-07-10T05:01:29;680.00;;;622.83;;
53036;SDS011;38924;52.134;4.666;2022-07-10T05:03:55;697.30;;;638.13;;
53036;SDS011;38924;52.134;4.666;2022-07-10T05:06:21;729.22;;;668.28;;
53036;SDS011;38924;52.134;4.666;2022-07-10T05:08:47;688.80;;;630.53;;
53036;SDS011;38924;52.134;4.666;2022-07-10T05:11:13;733.65;;;672.15;;
53036;SDS011;38924;52.134;4.666;2022-07-10T05:13:38;707.40;;;648.10;;
53036;SDS011;38924;52.134;4.666;2022-07-10T05:16:04;718.20;;;656.53;;
53036;SDS011;38924;52.134;4.666;2022-07-10T05:18:30;722.10;;;660.67;;
53036;SDS011;38924;52.134;4.666;2022-07-10T05:20:56;728.40;;;666.85;;
53036;SDS011;38924;52.134;4.666;2022-07-10T05:23:24;762.17;;;697.28;;
53036;SDS011;38924;52.134;4.666;2022-07-10T05:25:49;724.53;;;664.78;;
53036;SDS011;38924;52.134;4.666;2022-07-10T05:28:15;710.03;;;649.13;;
53036;SDS011;38924;52.134;4.666;2022-07-10T05:30:41;719.92;;;659.88;;
53036;SDS011;38924;52.134;4.666;2022-07-10T05:33:07;715.05;;;656.70;;
53036;SDS011;38924;52.134;4.666;2022-07-10T05:35:33;730.15;;;670.20;;
53036;SDS011;38924;52.134;4.666;2022-07-10T05:37:58;735.47;;;673.22;;
53036;SDS011;38924;52.134;4.666;2022-07-10T05:40:24;708.17;;;647.30;;
53036;SDS011;38924;52.134;4.666;2022-07-10T05:42:50;708.05;;;648.15;;
53036;SDS011;38924;52.134;4.666;2022-07-10T05:45:15;719.60;;;658.13;;
53036;SDS011;38924;52.134;4.666;2022-07-10T05:47:41;749.95;;;686.28;;
53036;SDS011;38924;52.134;4.666;2022-07-10T05:50:07;756.17;;;691.45;;
53036;SDS011;38924;52.134;4.666;2022-07-10T05:52:33;721.47;;;660.45;;
53036;SDS011;38924;52.134;4.666;2022-07-10T05:54:59;758.90;;;694.70;;
53036;SDS011;38924;52.134;4.666;2022-07-10T05:57:29;802.90;;;735.00;;
53036;SDS011;38924;52.134;4.666;2022-07-10T05:59:55;762.60;;;697.40;;
53036;SDS011;38924;52.134;4.666;2022-07-10T06:02:21;796.95;;;729.50;;
53036;SDS011;38924;52.134;4.666;2022-07-10T06:04:46;762.17;;;698.30;;
53036;SDS011;38924;52.134;4.666;2022-07-10T06:07:12;798.85;;;730.17;;
53036;SDS011;38924;52.134;4.666;2022-07-10T06:09:38;770.05;;;704.13;;
53036;SDS011;38924;52.134;4.666;2022-07-10T06:12:04;762.50;;;694.97;;
53036;SDS011;38924;52.134;4.666;2022-07-10T06:14:29;769.58;;;702.28;;
53036;SDS011;38924;52.134;4.666;2022-07-10T06:16:55;801.05;;;731.38;;
53036;SDS011;38924;52.134;4.666;2022-07-10T06:19:21;813.75;;;741.85;;
53036;SDS011;38924;52.134;4.666;2022-07-10T06:21:47;799.17;;;730.22;;
53036;SDS011;38924;52.134;4.666;2022-07-10T06:24:13;778.90;;;712.72;;
53036;SDS011;38924;52.134;4.666;2022-07-10T06:26:38;794.03;;;726.08;;
53036;SDS011;38924;52.134;4.666;2022-07-10T06:29:04;817.60;;;747.63;;
53036;SDS011;38924;52.134;4.666;2022-07-10T06:31:29;843.25;;;768.92;;
53036;SDS011;38924;52.134;4.666;2022-07-10T06:33:55;780.17;;;713.28;;
53036;SDS011;38924;52.134;4.666;2022-07-10T06:36:21;863.30;;;785.25;;
53036;SDS011;38924;52.134;4.666;2022-07-10T06:38:46;902.00;;;820.47;;
53036;SDS011;38924;52.134;4.666;2022-07-10T06:41:12;862.88;;;783.70;;
53036;SDS011;38924;52.134;4.666;2022-07-10T06:43:40;939.67;;;852.03;;
53036;SDS011;38924;52.134;4.666;2022-07-10T06:46:06;1071.15;;;963.38;;
53036;SDS011;38924;52.134;4.666;2022-07-10T06:48:32;1068.97;;;957.42;;
53036;SDS011;38924;52.134;4.666;2022-07-10T06:50:58;1145.20;;;999.90;;
53036;SDS011;38924;52.134;4.666;2022-07-10T06:53:23;1033.75;;;932.53;;
53036;SDS011;38924;52.134;4.666;2022-07-10T06:55:52;1035.75;;;934.63;;
53036;SDS011;38924;52.134;4.666;2022-07-10T06:58:18;1046.47;;;945.13;;
53036;SDS011;38924;52.134;4.666;2022-07-10T07:00:44;1123.43;;;998.30;;
53036;SDS011;38924;52.134;4.666;2022-07-10T07:03:09;1112.60;;;996.13;;
53036;SDS011;38924;52.134;4.666;2022-07-10T07:05:35;1099.45;;;985.70;;
53036;SDS011;38924;52.134;4.666;2022-07-10T07:08:03;1064.28;;;958.47;;
53036;SDS011;38924;52.134;4.666;2022-07-10T07:10:29;1012.53;;;912.25;;
53036;SDS011;38924;52.134;4.666;2022-07-10T07:13:00;1123.38;;;999.67;;
53036;SDS011;38924;52.134;4.666;2022-07-10T07:15:26;1144.13;;;999.90;;
53036;SDS011;38924;52.134;4.666;2022-07-10T07:17:51;1060.90;;;954.03;;
53036;SDS011;38924;52.134;4.666;2022-07-10T07:20:33;1068.40;;;963.60;;
53036;SDS011;38924;52.134;4.666;2022-07-10T07:23:18;977.53;;;885.25;;
53036;SDS011;38924;52.134;4.666;2022-07-10T07:25:44;1062.90;;;955.38;;
53036;SDS011;38924;52.134;4.666;2022-07-10T07:28:12;1079.22;;;967.88;;
53036;SDS011;38924;52.134;4.666;2022-07-10T07:30:41;1009.28;;;913.63;;
53036;SDS011;38924;52.134;4.666;2022-07-10T07:33:06;983.22;;;888.65;;
53036;SDS011;38924;52.134;4.666;2022-07-10T07:35:32;987.90;;;892.42;;
53036;SDS011;38924;52.134;4.666;2022-07-10T07:37:58;1023.20;;;924.08;;
53036;SDS011;38924;52.134;4.666;2022-07-10T07:40:24;991.15;;;896.70;;
53036;SDS011;38924;52.134;4.666;2022-07-10T07:42:50;940.88;;;853.90;;
53036;SDS011;38924;52.134;4.666;2022-07-10T07:45:16;938.50;;;853.22;;
53036;SDS011;38924;52.134;4.666;2022-07-10T07:47:43;945.53;;;858.40;;
53036;SDS011;38924;52.134;4.666;2022-07-10T07:50:10;904.55;;;823.58;;
53036;SDS011;38924;52.134;4.666;2022-07-10T07:52:36;920.15;;;835.75;;
53036;SDS011;38924;52.134;4.666;2022-07-10T07:55:02;916.05;;;832.30;;
53036;SDS011;38924;52.134;4.666;2022-07-10T07:57:29;985.95;;;896.78;;
53036;SDS011;38924;52.134;4.666;2022-07-10T07:59:54;924.38;;;836.70;;
53036;SDS011;38924;52.134;4.666;2022-07-10T08:02:20;966.10;;;877.35;;
53036;SDS011;38924;52.134;4.666;2022-07-10T08:04:47;916.38;;;830.95;;
53036;SDS011;38924;52.134;4.666;2022-07-10T08:07:16;949.13;;;855.50;;
53036;SDS011;38924;52.134;4.666;2022-07-10T08:09:41;969.65;;;878.75;;
53036;SDS011;38924;52.134;4.666;2022-07-10T08:12:07;948.63;;;859.47;;
53036;SDS011;38924;52.134;4.666;2022-07-10T08:14:33;998.28;;;901.58;;
53036;SDS011;38924;52.134;4.666;2022-07-10T08:16:59;922.88;;;839.65;;
53036;SDS011;38924;52.134;4.666;2022-07-10T08:19:25;917.70;;;834.92;;
53036;SDS011;38924;52.134;4.666;2022-07-10T08:21:50;1035.63;;;934.08;;
53036;SDS011;38924;52.134;4.666;2022-07-10T08:24:16;1135.07;;;996.92;;
53036;SDS011;38924;52.134;4.666;2022-07-10T08:26:42;1141.50;;;999.90;;
53036;SDS011;38924;52.134;4.666;2022-07-10T08:29:07;1081.07;;;973.88;;
53036;SDS011;38924;52.134;4.666;2022-07-10T08:31:33;1125.85;;;999.90;;
53036;SDS011;38924;52.134;4.666;2022-07-10T08:33:59;1072.35;;;964.75;;
53036;SDS011;38924;52.134;4.666;2022-07-10T08:36:28;1061.72;;;955.38;;
53036;SDS011;38924;52.134;4.666;2022-07-10T08:38:56;1179.85;;;999.90;;
53036;SDS011;38924;52.134;4.666;2022-07-10T08:41:25;1121.97;;;992.33;;
53036;SDS011;38924;52.134;4.666;2022-07-10T08:43:51;1192.68;;;999.90;;
53036;SDS011;38924;52.134;4.666;2022-07-10T08:46:17;1178.68;;;999.90;;
53036;SDS011;38924;52.134;4.666;2022-07-10T08:48:45;1268.95;;;999.90;;
53036;SDS011;38924;52.134;4.666;2022-07-10T08:51:12;1207.20;;;999.90;;
53036;SDS011;38924;52.134;4.666;2022-07-10T08:53:41;1324.95;;;999.90;;
53036;SDS011;38924;52.134;4.666;2022-07-10T08:56:07;1395.13;;;999.90;;
53036;SDS011;38924;52.134;4.666;2022-07-10T08:58:32;1383.65;;;999.90;;
53036;SDS011;38924;52.134;4.666;2022-07-10T09:00:58;1412.32;;;999.90;;
53036;SDS011;38924;52.134;4.666;2022-07-10T09:03:24;1403.60;;;999.90;;
53036;SDS011;38924;52.134;4.666;2022-07-10T09:05:50;1437.90;;;999.90;;
53036;SDS011;38924;52.134;4.666;2022-07-10T09:10:48;1534.25;;;999.90;;
53036;SDS011;38924;52.134;4.666;2022-07-10T09:13:16;1455.15;;;999.90;;
53036;SDS011;38924;52.134;4.666;2022-07-10T09:15:47;1509.07;;;999.90;;
53036;SDS011;38924;52.134;4.666;2022-07-10T09:18:13;1476.57;;;999.90;;
53036;SDS011;38924;52.134;4.666;2022-07-10T09:20:43;1601.22;;;999.90;;
53036;SDS011;38924;52.134;4.666;2022-07-10T09:25:40;1558.22;;;999.90;;
53036;SDS011;38924;52.134;4.666;2022-07-10T09:28:06;1510.47;;;999.90;;
53036;SDS011;38924;52.134;4.666;2022-07-10T09:30:34;1626.50;;;999.90;;
53036;SDS011;38924;52.134;4.666;2022-07-10T09:36:11;1539.10;;;999.90;;
53036;SDS011;38924;52.134;4.666;2022-07-10T09:43:47;1521.75;;;999.90;;
53036;SDS011;38924;52.134;4.666;2022-07-10T09:46:14;1517.32;;;999.90;;
53036;SDS011;38924;52.134;4.666;2022-07-10T09:48:39;1531.18;;;999.90;;
53036;SDS011;38924;52.134;4.666;2022-07-10T09:51:07;1588.10;;;999.90;;
53036;SDS011;38924;52.134;4.666;2022-07-10T09:53:36;1517.75;;;999.90;;
53036;SDS011;38924;52.134;4.666;2022-07-10T09:56:03;1514.57;;;999.90;;
53036;SDS011;38924;52.134;4.666;2022-07-10T09:58:29;1474.82;;;999.90;;
53036;SDS011;38924;52.134;4.666;2022-07-10T10:00:57;1569.38;;;999.90;;
53036;SDS011;38924;52.134;4.666;2022-07-10T10:03:23;1487.72;;;999.90;;
53036;SDS011;38924;52.134;4.666;2022-07-10T10:05:58;1465.80;;;999.90;;
53036;SDS011;38924;52.134;4.666;2022-07-10T10:08:36;1557.97;;;999.90;;
53036;SDS011;38924;52.134;4.666;2022-07-10T10:11:03;1569.40;;;999.90;;
53036;SDS011;38924;52.134;4.666;2022-07-10T10:13:29;1581.28;;;999.90;;
53036;SDS011;38924;52.134;4.666;2022-07-10T10:15:58;1574.55;;;999.90;;
53036;SDS011;38924;52.134;4.666;2022-07-10T10:18:25;1539.47;;;999.90;;
53036;SDS011;38924;52.134;4.666;2022-07-10T10:20:52;1639.65;;;999.90;;
53036;SDS011;38924;52.134;4.666;2022-07-10T10:23:19;1550.03;;;999.90;;
53036;SDS011;38924;52.134;4.666;2022-07-10T10:25:48;1568.93;;;999.90;;
53036;SDS011;38924;52.134;4.666;2022-07-10T10:28:14;1458.68;;;999.90;;
53036;SDS011;38924;52.134;4.666;2022-07-10T10:30:42;1508.05;;;999.90;;
53036;SDS011;38924;52.134;4.666;2022-07-10T10:35:52;1505.25;;;999.90;;
53036;SDS011;38924;52.134;4.666;2022-07-10T10:38:18;1462.93;;;999.90;;
53036;SDS011;38924;52.134;4.666;2022-07-10T10:40:43;1552.82;;;999.90;;
53036;SDS011;38924;52.134;4.666;2022-07-10T10:43:18;1529.18;;;999.90;;
53036;SDS011;38924;52.134;4.666;2022-07-10T10:45:45;1538.00;;;999.90;;
53036;SDS011;38924;52.134;4.666;2022-07-10T10:48:12;1515.28;;;999.90;;
53036;SDS011;38924;52.134;4.666;2022-07-10T10:50:50;1488.53;;;999.90;;
53036;SDS011;38924;52.134;4.666;2022-07-10T10:53:20;1480.10;;;999.90;;
53036;SDS011;38924;52.134;4.666;2022-07-10T11:01:31;1598.40;;;999.90;;
53036;SDS011;38924;52.134;4.666;2022-07-10T11:06:41;1493.63;;;999.90;;
53036;SDS011;38924;52.134;4.666;2022-07-10T11:09:27;1502.72;;;999.90;;
53036;SDS011;38924;52.134;4.666;2022-07-10T11:14:28;1479.97;;;999.90;;
53036;SDS011;38924;52.134;4.666;2022-07-10T11:16:55;1440.18;;;999.90;;
53036;SDS011;38924;52.134;4.666;2022-07-10T11:19:25;1472.45;;;999.90;;
53036;SDS011;38924;52.134;4.666;2022-07-10T11:27:15;1522.88;;;999.90;;
53036;SDS011;38924;52.134;4.666;2022-07-10T11:29:44;1442.95;;;999.90;;
53036;SDS011;38924;52.134;4.666;2022-07-10T11:32:16;1445.72;;;999.90;;
53036;SDS011;38924;52.134;4.666;2022-07-10T11:35:14;1421.15;;;999.90;;
53036;SDS011;38924;52.134;4.666;2022-07-10T11:37:48;1505.88;;;999.90;;
53036;SDS011;38924;52.134;4.666;2022-07-10T11:40:14;1495.50;;;999.90;;
53036;SDS011;38924;52.134;4.666;2022-07-10T11:42:54;1460.78;;;999.90;;
53036;SDS011;38924;52.134;4.666;2022-07-10T11:45:26;1469.00;;;999.90;;
53036;SDS011;38924;52.134;4.666;2022-07-10T11:47:51;1453.18;;;999.90;;
53036;SDS011;38924;52.134;4.666;2022-07-10T11:50:17;1495.05;;;999.90;;
53036;SDS011;38924;52.134;4.666;2022-07-10T11:52:43;1488.82;;;999.90;;
53036;SDS011;38924;52.134;4.666;2022-07-10T11:55:17;1433.18;;;999.90;;
53036;SDS011;38924;52.134;4.666;2022-07-10T11:57:43;1582.18;;;999.90;;
53036;SDS011;38924;52.134;4.666;2022-07-10T12:02:52;1480.45;;;999.90;;
53036;SDS011;38924;52.134;4.666;2022-07-10T12:05:30;1474.72;;;999.90;;
53036;SDS011;38924;52.134;4.666;2022-07-10T12:08:00;1457.93;;;999.90;;
53036;SDS011;38924;52.134;4.666;2022-07-10T12:10:26;1517.82;;;999.90;;
53036;SDS011;38924;52.134;4.666;2022-07-10T12:12:52;1522.90;;;999.90;;
53036;SDS011;38924;52.134;4.666;2022-07-10T12:15:30;1503.57;;;999.90;;
53036;SDS011;38924;52.134;4.666;2022-07-10T12:17:56;1493.32;;;999.90;;
53036;SDS011;38924;52.134;4.666;2022-07-10T12:20:21;1431.80;;;999.90;;
53036;SDS011;38924;52.134;4.666;2022-07-10T12:22:48;1564.47;;;999.90;;
53036;SDS011;38924;52.134;4.666;2022-07-10T12:25:13;1522.07;;;999.90;;
53036;SDS011;38924;52.134;4.666;2022-07-10T12:27:39;1503.18;;;999.90;;
53036;SDS011;38924;52.134;4.666;2022-07-10T12:30:05;1430.50;;;999.90;;
53036;SDS011;38924;52.134;4.666;2022-07-10T12:32:31;1551.35;;;999.90;;
53036;SDS011;38924;52.134;4.666;2022-07-10T12:34:58;1518.50;;;999.90;;
53036;SDS011;38924;52.134;4.666;2022-07-10T12:37:26;1503.03;;;999.90;;
53036;SDS011;38924;52.134;4.666;2022-07-10T12:39:52;1505.55;;;999.90;;
53036;SDS011;38924;52.134;4.666;2022-07-10T12:42:28;1539.40;;;999.90;;
53036;SDS011;38924;52.134;4.666;2022-07-10T12:44:54;1543.68;;;999.90;;
53036;SDS011;38924;52.134;4.666;2022-07-10T12:47:42;1463.40;;;999.90;;
53036;SDS011;38924;52.134;4.666;2022-07-10T12:50:08;1535.13;;;999.90;;
53036;SDS011;38924;52.134;4.666;2022-07-10T12:52:35;1468.13;;;999.90;;
53036;SDS011;38924;52.134;4.666;2022-07-10T13:00:21;1447.03;;;999.90;;
53036;SDS011;38924;52.134;4.666;2022-07-10T13:02:47;1454.40;;;999.90;;
53036;SDS011;38924;52.134;4.666;2022-07-10T13:07:52;1526.25;;;999.90;;
53036;SDS011;38924;52.134;4.666;2022-07-10T13:10:18;1527.03;;;999.90;;
53036;SDS011;38924;52.134;4.666;2022-07-10T13:12:47;1512.65;;;999.90;;
53036;SDS011;38924;52.134;4.666;2022-07-10T13:15:14;1549.60;;;999.90;;
53036;SDS011;38924;52.134;4.666;2022-07-10T13:17:48;1537.75;;;999.90;;
53036;SDS011;38924;52.134;4.666;2022-07-10T13:20:13;1551.68;;;999.90;;
53036;SDS011;38924;52.134;4.666;2022-07-10T13:22:40;1550.18;;;999.90;;
53036;SDS011;38924;52.134;4.666;2022-07-10T13:25:05;1596.35;;;999.90;;
53036;SDS011;38924;52.134;4.666;2022-07-10T13:27:31;1554.20;;;999.90;;
53036;SDS011;38924;52.134;4.666;2022-07-10T13:29:57;1543.93;;;999.90;;
53036;SDS011;38924;52.134;4.666;2022-07-10T13:32:23;1586.95;;;999.90;;
53036;SDS011;38924;52.134;4.666;2022-07-10T13:34:49;1603.55;;;999.90;;
53036;SDS011;38924;52.134;4.666;2022-07-10T13:37:14;1612.88;;;999.90;;
53036;SDS011;38924;52.134;4.666;2022-07-10T13:39:40;1546.15;;;999.90;;
53036;SDS011;38924;52.134;4.666;2022-07-10T13:42:06;1488.72;;;999.90;;
53036;SDS011;38924;52.134;4.666;2022-07-10T13:44:31;1627.25;;;999.90;;
53036;SDS011;38924;52.134;4.666;2022-07-10T13:46:57;1505.95;;;999.90;;
53036;SDS011;38924;52.134;4.666;2022-07-10T13:49:23;1536.55;;;999.90;;
53036;SDS011;38924;52.134;4.666;2022-07-10T13:51:51;1689.18;;;999.90;;
53036;SDS011;38924;52.134;4.666;2022-07-10T13:54:17;1490.75;;;999.90;;
53036;SDS011;38924;52.134;4.666;2022-07-10T13:56:43;1579.47;;;999.90;;
53036;SDS011;38924;52.134;4.666;2022-07-10T13:59:11;1565.40;;;999.90;;
53036;SDS011;38924;52.134;4.666;2022-07-10T14:01:37;1648.35;;;999.90;;
53036;SDS011;38924;52.134;4.666;2022-07-10T14:04:03;1579.78;;;999.90;;
53036;SDS011;38924;52.134;4.666;2022-07-10T14:06:28;1472.32;;;999.90;;
53036;SDS011;38924;52.134;4.666;2022-07-10T14:08:54;1646.38;;;999.90;;
53036;SDS011;38924;52.134;4.666;2022-07-10T14:11:20;1497.95;;;999.90;;
53036;SDS011;38924;52.134;4.666;2022-07-10T14:13:45;1560.07;;;999.90;;
53036;SDS011;38924;52.134;4.666;2022-07-10T14:16:12;1649.22;;;999.90;;
53036;SDS011;38924;52.134;4.666;2022-07-10T14:18:37;1558.25;;;999.90;;
53036;SDS011;38924;52.134;4.666;2022-07-10T14:21:08;1593.75;;;999.90;;
53036;SDS011;38924;52.134;4.666;2022-07-10T14:23:34;1494.43;;;999.90;;
53036;SDS011;38924;52.134;4.666;2022-07-10T14:26:00;1520.38;;;999.90;;
53036;SDS011;38924;52.134;4.666;2022-07-10T14:28:26;1573.00;;;999.90;;
53036;SDS011;38924;52.134;4.666;2022-07-10T14:30:52;1614.32;;;999.90;;
53036;SDS011;38924;52.134;4.666;2022-07-10T14:33:20;1509.82;;;999.90;;